Date,TemperatureHighF,TemperatureAvgF,TemperatureLowF,DewpointHighF,DewpointAvgF,DewpointLowF,HumidityHigh,HumidityAvg,HumidityLow,PressureMaxIn,PressureMinIn,WindSpeedMaxMPH,WindSpeedAvgMPH,GustSpeedMaxMPH,PrecipitationSumIn
2013-1-1,44.3,40.5,36.2,43.2,38.2,31.1,97,92,76,30.17,30.01,8,2,12,0.76
2013-1-2,41.7,37.5,35.7,39.8,33.6,31.8,93,86,80,30.22,30.05,8,3,16,0.00
2013-1-3,43.1,36.5,29.7,32.4,28.4,21.2,86,73,43,30.41,30.21,6,2,7,0.00
2013-1-4,40.0,33.0,25.9,27.2,23.4,20.0,80,68,52,30.50,30.39,7,2,12,0.00
2013-1-5,43.0,35.0,25.9,34.3,27.4,22.2,92,75,53,30.49,30.30,8,2,10,0.04
2013-1-6,44.1,39.9,37.1,37.4,35.3,28.4,93,84,68,30.35,30.17,10,5,14,0.03
2013-1-7,49.9,36.7,29.2,30.8,27.7,24.2,87,71,45,30.48,30.35,10,3,12,0.00
2013-1-8,52.5,38.4,28.5,36.1,31.2,26.1,94,77,49,30.49,30.35,6,1,9,0.00
2013-1-9,47.9,43.3,36.3,45.9,39.5,31.7,94,87,72,30.52,30.37,8,1,12,0.05
2013-1-10,61.0,53.6,47.3,52.6,48.9,45.4,94,84,73,30.52,30.20,8,3,11,0.00
2013-1-11,67.7,60.6,53.6,61.7,55.8,50.4,95,85,73,30.20,30.05,14,4,17,0.01
2013-1-12,70.3,61.6,55.6,64.2,59.2,54.4,98,92,78,30.15,30.00,4,1,7,0.01
2013-1-13,61.6,55.4,49.3,59.9,54.0,48.7,98,95,87,30.07,29.97,8,1,14,0.70
2013-1-14,59.7,45.7,38.0,58.6,44.1,36.2,97,94,91,30.34,30.02,11,3,13,1.82
2013-1-15,44.3,42.4,40.6,43.5,41.3,39.1,97,96,93,30.24,30.01,8,3,15,2.63
2013-1-16,48.2,44.8,42.3,46.5,43.5,40.1,98,95,92,30.11,29.94,7,2,9,0.86
2013-1-17,43.4,37.5,31.2,42.2,35.2,28.3,97,92,79,30.39,29.99,11,4,16,1.04
2013-1-18,41.4,33.7,25.1,33.2,28.9,23.7,96,83,62,30.61,30.46,7,1,8,0.13
2013-1-19,47.0,34.6,28.3,36.1,31.3,27.0,97,88,63,30.50,30.23,6,1,9,0.01
2013-1-20,53.4,43.0,33.6,36.4,31.7,25.4,91,65,48,30.25,30.15,10,4,17,0.00
2013-1-21,44.7,35.7,28.1,31.3,18.8,8.1,86,54,28,30.25,30.12,20,7,25,0.00
2013-1-22,30.8,25.6,19.9,8.9,1.5,-4.6,55,36,22,30.42,30.24,12,6,19,0.00
2013-1-23,41.4,32.9,23.8,27.7,13.0,-0.4,63,44,31,30.44,30.17,11,5,19,0.00
2013-1-24,41.7,32.8,26.4,31.2,14.4,2.4,67,47,29,30.48,30.16,14,7,17,0.00
2013-1-25,34.0,29.3,24.8,32.6,22.9,7.0,95,79,45,30.43,30.16,10,3,17,0.09
2013-1-26,42.4,34.6,29.6,33.3,30.0,26.3,96,84,67,30.44,30.24,9,3,12,0.12
2013-1-27,44.9,36.6,28.2,38.5,31.5,25.4,91,82,66,30.51,30.38,6,2,8,0.03
2013-1-28,54.9,46.4,38.2,47.5,41.9,36.4,95,85,66,30.41,30.25,9,2,13,0.02
2013-1-29,64.2,52.0,43.6,53.7,48.5,42.8,97,89,67,30.27,29.91,5,1,7,0.00
2013-1-30,68.4,54.3,43.5,59.9,51.2,36.8,97,89,73,29.90,29.50,20,4,23,2.14
2013-1-31,43.4,36.6,32.8,36.8,25.1,22.3,85,63,50,30.07,29.65,21,12,34,0.00
2013-2-1,40.4,25.9,16.7,32.0,13.4,5.2,89,59,43,30.47,30.00,20,7,27,0.00
2013-2-2,35.1,27.9,21.7,31.0,22.5,12.4,91,80,64,30.44,30.14,8,4,12,0.00
2013-2-3,39.8,34.7,30.1,34.4,28.6,21.1,95,79,59,30.22,30.04,21,8,24,0.03
2013-2-4,44.3,33.9,24.9,32.9,25.9,20.3,86,73,53,30.21,30.00,6,1,7,0.00
2013-2-5,54.4,46.4,37.8,41.2,36.0,30.3,83,67,54,30.05,29.97,12,5,18,0.00
2013-2-6,56.7,45.4,32.7,38.8,32.7,28.3,89,63,35,30.24,30.05,8,2,11,0.00
2013-2-7,55.7,47.5,41.0,42.8,35.3,29.3,82,63,47,30.20,29.96,14,5,18,0.00
2013-2-8,51.2,44.1,35.5,45.7,37.9,27.7,95,79,57,30.32,29.92,14,5,21,0.09
2013-2-9,49.2,38.1,26.7,29.5,26.2,23.1,88,64,37,30.41,30.28,7,2,9,0.00
2013-2-10,59.2,46.3,38.9,43.2,31.4,23.0,90,59,26,30.30,30.02,7,2,10,0.15
2013-2-11,56.0,50.0,45.0,52.3,42.5,28.7,97,77,50,30.15,30.01,15,5,18,0.02
2013-2-12,52.0,44.1,34.0,38.2,30.6,25.9,85,60,38,30.22,29.91,7,2,9,0.00
2013-2-13,46.8,42.2,36.9,43.9,38.2,32.1,95,86,68,30.02,29.70,17,6,22,0.18
2013-2-14,51.0,40.7,33.3,35.7,33.3,31.4,94,76,54,30.12,30.02,8,3,14,0.00
2013-2-15,54.7,39.0,31.1,40.6,34.5,29.6,96,85,56,30.16,30.05,14,3,20,0.06
2013-2-16,35.7,31.3,26.0,29.7,20.5,7.7,87,65,39,30.17,30.03,14,6,23,0.00
2013-2-17,39.2,29.3,21.9,17.6,12.0,6.9,70,50,26,30.32,30.17,14,6,22,0.00
2013-2-18,56.4,38.7,24.8,33.4,25.2,17.5,82,60,36,30.37,30.03,11,3,13,0.00
2013-2-19,51.6,42.9,36.1,40.8,29.6,15.7,95,64,29,30.20,29.96,22,9,32,0.18
2013-2-20,39.4,33.4,27.0,17.9,14.6,8.2,65,47,28,30.29,30.19,10,4,18,0.00
2013-2-21,49.3,37.0,24.8,36.9,20.5,12.1,92,54,25,30.32,30.07,9,4,15,0.36
2013-2-22,54.5,47.4,39.1,46.9,42.9,37.0,95,84,74,30.15,30.02,8,2,11,0.11
2013-2-23,55.0,48.2,44.9,48.3,45.3,37.1,97,90,71,30.06,29.86,8,2,10,0.08
2013-2-24,54.1,43.2,33.8,38.1,28.3,21.2,82,58,29,30.11,29.93,9,2,13,0.00
2013-2-25,55.2,44.0,32.4,37.0,29.4,23.6,81,57,41,30.10,29.87,9,5,13,0.00
2013-2-26,61.2,49.0,42.1,50.4,41.1,34.5,90,74,58,29.86,29.44,25,12,31,0.20
2013-2-27,44.4,40.9,38.8,36.4,34.2,32.4,83,77,67,29.87,29.69,17,9,21,0.02
2013-2-28,38.7,36.3,33.4,32.4,28.4,24.9,88,73,60,30.04,29.83,16,8,22,0.00
2013-3-1,40.9,36.6,34.4,34.5,31.2,28.8,88,81,68,30.03,29.97,8,4,12,0.02
2013-3-2,38.9,33.7,29.4,31.5,27.4,19.3,91,78,61,30.10,29.97,11,5,20,0.00
2013-3-3,32.4,29.3,24.0,20.7,18.8,15.9,80,65,54,30.16,30.09,9,4,14,0.00
2013-3-4,48.8,36.7,22.5,27.0,21.2,16.0,79,55,32,30.26,30.06,6,2,8,0.00
2013-3-5,48.0,40.5,33.9,46.0,34.9,23.2,96,82,49,30.08,29.65,24,6,39,1.66
2013-3-6,33.6,31.4,28.5,29.0,27.2,22.1,94,85,70,30.32,29.86,17,8,23,0.00
2013-3-7,36.0,33.5,31.8,28.7,27.6,26.2,86,79,73,30.42,30.29,6,3,8,0.00
2013-3-8,48.6,37.7,28.7,31.5,27.1,23.5,83,67,44,30.49,30.35,8,3,10,0.00
2013-3-9,61.7,44.0,32.8,38.5,31.4,26.7,79,63,32,30.37,30.20,6,2,7,0.00
2013-3-10,70.2,55.7,43.3,41.5,37.3,33.8,84,53,28,30.21,30.01,4,1,5,0.00
2013-3-11,64.0,54.7,47.3,52.1,44.7,34.2,94,71,46,30.01,29.76,16,4,23,0.48
2013-3-12,51.2,43.7,38.6,45.6,34.3,29.5,92,71,48,30.12,29.86,11,4,15,0.09
2013-3-13,44.7,38.2,32.4,31.1,24.0,16.4,75,57,45,30.36,30.09,20,8,24,0.00
2013-3-14,44.7,35.1,25.8,22.4,18.5,14.7,70,51,32,30.46,30.30,10,5,18,0.00
2013-3-15,65.5,48.9,31.3,44.4,34.2,21.2,86,59,41,30.31,29.91,13,4,19,0.00
2013-3-16,73.9,65.2,59.6,50.9,47.0,43.0,63,52,43,29.91,29.74,21,10,28,0.00
2013-3-17,71.1,61.1,50.9,51.9,49.3,44.5,88,67,39,29.96,29.81,15,4,20,0.00
2013-3-18,57.6,51.2,47.2,51.4,47.7,43.9,97,88,74,29.92,29.78,13,3,18,1.31
2013-3-19,55.7,48.1,38.5,51.0,28.3,5.6,97,52,16,30.16,29.85,16,7,21,0.00
2013-3-20,52.5,42.7,31.8,30.0,16.6,7.7,71,37,21,30.17,29.90,17,6,38,0.00
2013-3-21,38.7,30.8,24.1,17.4,11.8,8.6,59,45,32,30.08,29.99,13,6,22,0.00
2013-3-22,44.2,34.4,23.6,29.7,18.2,12.7,70,53,31,30.15,30.06,6,2,8,0.00
2013-3-23,52.2,44.1,38.0,40.4,34.5,27.8,88,69,60,30.09,29.81,7,2,9,0.00
2013-3-24,53.1,47.4,42.0,49.9,44.0,33.6,95,88,66,29.83,29.38,20,6,24,0.82
2013-3-25,42.0,34.3,30.6,34.0,29.9,27.2,95,84,68,30.04,29.59,20,12,27,0.00
2013-3-26,37.7,33.6,30.9,31.3,29.3,28.0,92,84,70,30.33,30.04,13,6,17,0.00
2013-3-27,45.1,36.8,32.0,29.4,26.6,22.8,84,68,45,30.40,30.31,10,4,13,0.00
2013-3-28,53.7,39.9,27.7,32.4,25.2,19.9,91,60,28,30.41,30.30,10,2,13,0.00
2013-3-29,48.2,39.2,30.2,39.3,32.9,24.6,92,79,48,30.39,30.30,7,2,10,0.11
2013-3-30,59.2,47.9,41.2,47.4,42.2,38.6,92,81,60,30.30,30.04,6,2,8,0.06
2013-3-31,59.4,53.1,48.2,54.1,50.3,46.5,97,90,79,30.05,29.86,12,4,17,0.50
2013-4-1,60.4,50.6,39.5,50.3,41.5,30.6,97,75,42,30.11,29.93,15,5,23,0.01
2013-4-2,54.0,45.5,35.9,32.3,22.8,16.4,60,42,25,30.27,30.10,8,4,16,0.00
2013-4-3,54.3,45.1,32.7,30.2,22.1,17.7,68,41,28,30.35,30.24,12,5,17,0.00
2013-4-4,49.3,43.5,39.5,38.3,31.8,19.5,92,68,32,30.25,30.03,14,9,19,0.55
2013-4-5,63.0,48.8,39.7,43.8,38.4,33.1,94,71,36,30.14,30.02,9,3,11,0.01
2013-4-6,69.2,53.1,38.2,45.4,38.8,34.3,91,62,31,30.24,30.09,5,1,8,0.00
2013-4-7,71.6,58.2,44.4,48.1,43.5,38.2,86,60,38,30.18,30.06,13,4,19,0.00
2013-4-8,75.6,61.7,49.3,55.1,49.2,43.8,85,66,43,30.13,30.01,15,4,22,0.00
2013-4-9,79.7,64.6,50.6,59.7,53.7,48.0,92,70,45,30.20,30.03,10,2,16,0.00
2013-4-10,82.8,68.3,53.5,61.5,56.8,51.2,93,69,44,30.12,29.88,10,2,14,0.00
2013-4-11,81.3,67.5,56.5,61.4,56.4,51.7,95,71,37,29.91,29.63,12,2,21,0.76
2013-4-12,61.4,59.3,55.3,59.3,56.3,49.3,96,90,80,29.76,29.58,13,5,16,0.45
2013-5-10,73.5,68.6,62.1,62.9,59.2,56.1,89,72,61,30.05,29.93,11,5,18,0.00
2013-5-11,72.4,64.9,55.6,65.5,58.0,49.2,92,79,60,30.00,29.85,14,5,20,0.24
2013-5-12,62.6,55.8,50.4,50.9,39.4,28.5,87,57,29,30.16,29.99,12,5,16,0.00
2013-5-13,64.1,53.1,39.3,40.1,33.2,28.6,82,50,27,30.27,30.16,11,3,17,0.00
2013-5-14,75.3,59.9,41.3,55.5,46.2,34.3,88,62,44,30.28,30.05,11,4,19,0.00
2013-5-15,82.8,72.8,63.5,61.0,57.4,54.9,74,59,43,30.14,29.97,11,6,18,0.00
2013-5-16,79.1,69.3,57.8,62.6,58.5,53.1,88,69,51,30.06,29.96,8,2,11,0.00
2013-5-17,82.0,68.8,59.0,65.8,61.6,57.8,97,80,46,30.11,30.01,6,1,8,0.00
2013-5-18,70.9,66.5,64.0,66.9,63.8,60.6,96,91,80,30.08,30.01,5,2,7,0.57
2013-5-19,76.3,68.6,63.1,69.8,65.6,61.6,97,90,79,30.08,29.99,8,2,11,0.00
2013-5-20,83.0,70.3,61.8,68.2,64.6,60.9,98,84,56,30.13,29.99,6,1,9,0.01
2013-5-21,68.7,65.7,64.0,67.8,64.5,63.1,98,96,93,30.05,29.99,1,0,2,0.00
2013-5-22,83.6,73.4,64.7,70.1,65.9,63.1,95,78,57,29.97,29.84,14,4,25,0.68
2013-5-23,77.8,69.9,63.3,65.9,61.1,54.6,97,75,55,30.01,29.87,11,5,19,0.04
2013-5-24,67.1,61.1,54.3,55.4,47.4,38.7,89,63,37,30.30,30.00,11,5,16,0.00
2013-5-25,74.2,59.5,45.9,52.1,44.9,39.7,91,61,32,30.38,30.20,7,2,9,0.00
2013-5-26,75.9,64.7,57.3,55.4,48.6,38.2,86,57,33,30.32,30.20,8,2,11,0.00
2013-5-27,81.7,68.5,56.6,60.9,57.3,53.8,93,70,46,30.24,30.09,10,3,14,0.00
2013-5-28,84.9,72.5,60.2,65.3,61.2,57.9,94,70,44,30.20,30.06,9,2,12,0.00
2013-5-29,86.2,73.3,60.2,69.0,62.9,56.9,95,71,47,30.21,30.08,7,2,9,0.00
2013-5-30,85.3,74.2,61.9,70.1,63.1,58.7,93,70,44,30.24,30.08,5,1,8,0.00
2013-5-31,87.1,75.6,65.1,66.6,63.0,59.9,87,67,44,30.17,30.03,7,2,9,0.00
2013-6-1,87.4,76.6,66.1,68.8,64.4,59.0,93,69,40,30.07,29.92,12,4,20,0.03
2013-6-2,76.2,69.8,66.0,69.2,67.0,64.8,96,91,75,29.98,29.87,8,2,10,1.44
2013-6-3,79.8,70.6,63.7,67.2,63.0,58.2,97,79,49,30.00,29.90,6,2,11,0.01
2013-6-4,82.5,71.5,61.7,65.6,60.4,55.0,88,70,45,30.06,29.98,7,2,9,0.00
2013-6-5,84.8,71.7,65.1,70.1,65.3,61.9,97,82,54,30.05,29.89,28,4,46,1.01
2013-6-6,80.8,71.8,64.8,70.2,66.6,63.6,97,85,63,29.94,29.75,7,2,10,0.11
2013-6-7,81.9,73.2,67.7,70.4,66.6,61.4,96,81,50,29.85,29.70,8,2,12,0.06
2013-6-8,80.9,71.2,63.7,67.3,64.0,61.0,95,79,53,30.07,29.85,9,3,12,0.06
2013-6-9,83.0,71.1,65.3,71.8,66.5,63.5,96,86,62,30.12,29.97,18,3,22,0.32
2013-6-10,80.0,71.9,67.9,67.8,66.4,62.6,96,84,56,29.99,29.85,11,5,17,0.16
2013-6-11,85.6,73.9,64.6,69.1,65.4,61.7,97,77,49,30.04,29.94,6,2,11,0.01
2013-6-12,89.4,79.2,67.5,77.2,71.0,65.7,95,77,57,30.04,29.89,9,3,14,0.00
2013-6-13,84.2,77.0,69.8,75.4,70.2,60.1,90,80,72,29.91,29.71,16,6,32,0.06
2013-6-14,79.7,70.3,59.7,62.3,59.0,55.7,93,69,45,30.06,29.88,8,2,16,0.00
2013-6-15,83.6,72.1,61.4,66.5,61.4,57.4,94,71,48,30.15,30.03,6,2,11,0.00
2013-6-16,83.8,74.1,64.6,70.6,65.4,61.4,93,75,56,30.12,29.99,12,2,18,0.18
2013-6-17,81.2,73.5,68.7,72.2,69.2,66.7,96,87,68,30.06,29.92,8,2,13,0.06
2013-6-18,74.5,70.5,65.2,70.5,66.6,63.2,96,88,72,29.98,29.84,11,2,19,1.23
2013-6-19,83.0,71.9,63.0,68.7,64.9,61.8,98,81,53,30.09,29.95,5,2,7,0.00
2013-6-20,85.3,74.8,65.3,69.4,65.4,58.8,93,74,42,30.20,30.08,6,2,8,0.00
2013-6-21,84.0,75.2,69.2,69.7,66.8,63.3,91,76,54,30.25,30.14,6,2,9,0.00
2013-6-22,84.3,74.5,66.0,68.4,65.1,61.7,96,74,48,30.24,30.08,10,2,13,0.00
2013-6-23,85.7,74.9,65.4,68.8,65.8,62.4,95,75,51,30.22,30.09,10,2,15,0.00
2013-6-24,86.4,76.7,67.2,72.2,68.4,65.4,96,77,54,30.22,30.06,8,2,12,0.01
2013-6-25,84.2,74.9,69.0,73.8,70.0,66.8,96,85,64,30.15,30.02,10,2,14,0.04
2013-6-26,85.6,75.0,69.9,74.3,70.7,65.8,98,87,62,30.04,29.88,13,3,21,0.04
2013-6-27,84.3,73.9,65.5,76.2,70.2,64.2,97,89,70,29.92,29.77,15,4,23,0.41
2013-6-28,82.3,73.7,69.1,73.8,70.6,67.9,98,90,72,29.84,29.65,10,3,14,0.03
2013-6-29,82.6,73.9,65.6,70.0,65.1,60.1,97,76,47,29.70,29.64,9,3,11,0.01
2013-6-30,86.8,75.0,64.4,68.3,64.3,55.2,95,72,36,29.80,29.68,17,2,19,0.00
2013-7-1,82.2,72.8,66.3,70.2,66.6,61.6,91,82,60,29.91,29.77,12,3,17,0.23
2013-7-2,81.2,72.4,66.6,70.0,67.3,64.7,95,85,65,30.07,29.90,8,2,13,0.45
2013-7-3,76.3,71.0,67.3,71.6,68.0,64.1,96,90,80,30.18,30.06,11,3,13,0.29
2013-7-4,79.0,71.0,66.2,72.9,67.9,64.2,96,90,79,30.19,30.10,10,4,16,0.44
2013-7-5,81.2,73.9,69.4,71.5,69.2,67.7,96,86,65,30.19,30.12,5,2,7,0.03
2013-7-6,85.9,72.5,68.4,72.6,68.9,66.1,96,89,59,30.17,30.04,20,3,29,0.57
2013-7-7,74.0,69.6,66.0,69.0,67.4,64.8,97,93,81,30.18,30.09,8,2,9,1.03
2013-7-8,84.2,74.2,65.8,71.8,67.7,63.1,97,82,50,30.23,30.11,4,1,5,0.00
2013-7-9,86.8,76.6,68.9,76.1,71.2,66.9,97,84,59,30.17,30.04,7,1,8,0.00
2013-7-10,87.8,76.1,71.0,76.4,71.9,68.5,94,88,62,30.09,29.92,13,2,16,0.26
2013-7-11,83.7,75.3,70.0,75.3,70.4,68.5,96,86,68,29.98,29.88,6,1,8,0.05
2013-7-12,83.1,75.2,68.9,68.8,65.7,61.3,92,74,50,29.99,29.90,7,3,11,0.00
2013-7-13,83.5,76.1,69.3,68.1,65.3,63.1,83,70,51,30.08,29.95,15,8,17,0.00
2013-7-14,81.9,76.8,71.3,72.6,68.7,66.4,87,76,65,30.23,30.07,22,10,30,0.00
2013-7-15,86.2,79.2,71.7,71.4,68.8,66.6,85,71,55,30.30,30.21,15,4,21,0.00
2013-7-16,89.3,78.7,68.9,74.7,69.7,66.2,91,75,55,30.34,30.23,5,1,6,0.00
2013-7-17,88.8,78.0,71.3,76.1,71.9,69.0,97,83,60,30.30,30.16,20,2,23,0.14
2013-7-18,89.9,76.8,69.9,76.4,71.5,68.2,96,85,57,30.24,30.06,9,3,12,0.00
2013-7-19,89.2,79.1,70.8,75.4,72.4,69.5,96,81,56,30.12,29.96,7,2,11,0.00
2013-7-20,88.4,78.0,70.1,75.3,71.7,68.5,96,82,62,30.03,29.91,10,2,13,0.00
2013-7-21,81.9,74.5,69.9,74.1,70.5,68.0,95,88,75,30.02,29.94,19,3,22,0.16
2013-7-22,81.8,74.5,70.3,73.1,70.7,69.0,97,88,72,29.97,29.82,10,5,16,0.96
2013-7-23,83.4,73.2,68.8,73.9,69.8,67.2,98,90,70,29.93,29.81,9,4,13,0.32
2013-7-24,85.1,76.1,69.3,74.2,70.4,66.2,98,84,56,29.89,29.80,8,3,11,0.00
2013-7-25,83.8,73.8,66.8,68.0,64.2,61.0,90,73,48,30.05,29.88,6,2,9,0.00
2013-7-26,84.5,72.0,64.1,70.1,64.7,59.3,96,78,60,30.08,29.99,16,2,24,0.14
2013-7-27,80.4,72.7,68.3,71.5,67.9,62.8,96,86,58,30.02,29.89,7,2,9,0.01
2013-7-28,80.1,72.9,66.9,67.6,64.2,55.1,94,75,56,30.07,29.91,8,2,12,0.00
2013-7-29,81.3,68.8,58.8,61.8,56.9,50.6,88,67,37,30.22,30.06,7,2,9,0.00
2013-7-30,74.3,65.7,60.4,63.9,59.7,56.9,92,81,69,30.25,30.19,6,1,8,0.00
2013-8-10,87.0,76.3,69.2,76.5,72.2,68.0,97,88,68,30.12,30.05,14,3,21,0.55
2013-8-11,85.5,74.1,68.6,75.7,70.9,67.7,98,90,67,30.16,30.06,9,2,10,0.01
2013-8-12,83.4,75.4,69.7,76.6,71.7,68.8,98,89,73,30.12,29.96,7,2,11,0.01
2013-8-13,79.4,74.2,72.0,72.8,71.3,69.2,94,91,79,29.98,29.90,10,4,14,0.21
2013-8-16,79.2,72.3,68.9,64.6,63.5,61.5,83,74,55,30.10,30.04,4,1,8,0.00
2013-8-17,72.9,69.4,65.9,65.4,61.8,58.9,94,77,68,30.16,30.08,12,5,16,0.20
2013-8-18,78.6,71.0,66.6,68.7,66.3,64.4,95,86,65,30.20,30.11,8,2,12,0.06
2013-8-19,80.4,71.9,67.4,70.7,67.9,65.9,95,88,66,30.17,30.07,7,1,10,0.13
2013-8-20,83.5,74.6,67.1,71.7,69.2,66.2,97,85,63,30.19,30.09,5,1,8,0.00
2013-8-21,80.4,73.2,69.2,73.1,70.3,68.0,97,91,75,30.22,30.12,7,1,9,0.11
2013-8-22,86.6,75.6,68.9,73.2,69.9,67.7,97,84,57,30.18,30.03,6,1,7,0.01
2013-8-23,84.9,72.8,67.5,73.4,69.3,66.0,97,89,65,30.10,30.01,15,2,19,0.00
2013-8-24,83.6,74.2,67.5,69.1,65.5,60.3,97,77,46,30.25,30.10,11,4,16,0.00
2013-8-25,81.3,72.4,64.1,64.0,60.3,56.0,88,67,43,30.37,30.25,7,3,11,0.00
2013-8-26,83.8,70.7,60.4,68.1,63.6,58.3,97,80,52,30.33,30.15,7,1,10,0.00
2013-8-27,85.3,73.7,64.9,71.8,67.7,63.0,95,82,59,30.17,30.04,7,2,10,0.00
2013-8-28,87.2,77.4,69.2,73.6,70.2,67.5,95,80,57,30.07,29.97,7,2,16,0.00
2013-8-29,89.3,79.2,71.9,75.9,71.3,68.2,92,78,53,30.00,29.92,6,2,9,0.00
2013-8-30,89.0,77.9,68.8,74.9,70.3,67.2,97,79,52,30.01,29.89,7,2,11,0.00
2013-8-31,89.9,78.2,70.4,75.9,72.1,67.9,95,83,58,29.96,29.82,15,3,19,0.67
2013-9-1,86.0,74.7,68.4,74.6,69.5,66.6,96,85,56,29.90,29.81,10,3,15,0.17
2013-9-2,81.8,74.2,68.1,74.1,70.2,66.8,97,88,73,29.95,29.84,7,2,10,0.00
2013-9-3,83.3,72.7,65.5,71.4,66.3,62.5,96,81,57,30.03,29.88,14,3,19,1.84
2013-9-4,83.9,70.9,62.1,66.7,63.1,59.8,96,78,50,30.14,30.02,7,2,9,0.00
2013-9-5,81.2,69.8,61.9,66.3,62.6,56.6,96,80,47,30.18,30.12,7,2,8,0.00
2013-9-6,85.4,72.2,64.6,66.3,63.4,57.1,96,76,41,30.20,30.07,8,2,13,0.01
2013-9-7,83.6,72.2,64.0,69.7,65.7,62.3,97,82,53,30.13,30.00,7,2,11,0.00
2013-9-8,85.8,74.3,66.4,72.4,67.2,63.4,95,80,49,30.02,29.95,6,1,8,0.00
2013-9-9,88.3,75.7,67.5,72.7,69.2,66.0,97,82,53,30.11,30.01,6,1,8,0.00
2013-9-10,89.2,77.2,68.3,71.6,69.2,66.9,97,79,50,30.23,30.11,6,1,8,0.00
2013-9-11,86.5,76.6,68.5,73.1,69.6,66.4,95,80,55,30.23,30.09,7,2,9,0.00
2013-9-12,82.6,72.9,66.7,73.7,69.1,64.7,95,88,71,30.10,29.90,13,2,20,0.49
2013-9-13,75.6,68.0,59.3,65.1,58.2,50.5,97,73,47,30.01,29.90,9,4,15,0.01
2013-9-14,73.5,61.9,54.2,55.3,51.1,47.8,84,69,46,30.11,30.00,12,4,15,0.00
2013-9-15,80.0,66.8,57.2,64.6,58.6,52.4,94,76,51,30.20,30.11,5,2,9,0.00
2013-9-16,78.1,68.3,62.2,66.7,63.1,60.5,97,84,62,30.20,30.12,10,2,14,0.00
2013-9-17,77.9,69.4,62.6,64.8,60.4,56.1,83,74,59,30.24,30.14,11,5,15,0.00
2013-9-18,68.6,65.5,62.0,63.2,59.8,56.8,91,82,75,30.24,30.15,7,3,14,0.04
2013-9-19,79.7,69.3,61.1,68.3,64.1,59.7,96,84,65,30.20,30.07,7,2,11,0.00
2013-9-20,83.2,71.6,64.7,68.4,65.5,63.5,97,83,53,30.09,29.89,8,2,12,0.01
2013-9-21,68.0,65.9,59.0,66.5,63.6,56.2,95,92,87,29.90,29.75,11,1,18,1.30
2013-9-22,74.5,62.6,53.0,57.9,54.7,51.6,96,77,51,29.96,29.83,8,2,15,0.01
2013-9-23,79.0,64.3,53.2,62.6,56.5,50.4,94,77,51,30.05,29.95,13,3,14,0.00
2013-9-24,79.1,67.7,58.2,64.9,61.2,56.6,96,81,53,30.08,29.90,7,2,10,0.00
2013-9-25,68.7,66.0,63.8,64.8,63.5,62.0,95,92,86,29.91,29.84,8,2,9,0.32
2013-9-26,78.5,67.3,60.0,64.1,61.4,57.4,95,83,55,30.05,29.89,7,1,8,0.00
2013-9-27,79.3,66.1,57.3,62.1,57.8,49.9,96,78,38,30.18,30.05,4,1,6,0.01
2013-9-28,76.5,65.3,59.1,61.8,58.6,55.4,96,80,50,30.25,30.11,6,2,7,0.00
2013-9-29,70.7,63.3,57.7,61.3,58.2,55.1,95,84,67,30.17,30.03,5,2,7,0.00
2013-9-30,76.4,64.7,56.3,63.2,58.8,55.2,97,83,51,30.11,30.01,7,1,16,0.00
2013-10-1,77.5,66.4,59.1,64.1,60.7,58.0,97,84,57,30.18,30.07,8,2,11,0.00
2013-10-2,80.5,67.7,60.0,67.7,62.8,59.0,97,86,60,30.21,30.08,4,1,5,0.01
2013-10-3,81.7,69.2,63.3,67.7,63.9,61.8,96,84,59,30.16,30.06,6,2,8,0.00
2013-10-4,82.7,69.8,63.7,67.9,64.1,62.1,97,84,52,30.19,30.09,6,1,8,0.01
2013-10-5,84.0,70.6,62.0,70.0,65.1,60.8,97,84,57,30.16,30.00,5,1,6,0.00
2013-10-6,83.0,71.7,62.1,67.9,64.0,60.9,97,79,50,30.02,29.80,8,2,15,0.07
2013-10-7,67.8,60.2,54.6,64.3,51.9,47.6,95,76,50,30.11,29.82,11,3,14,0.23
2013-10-8,71.0,60.3,52.4,52.7,48.4,45.0,78,66,48,30.19,30.11,14,6,20,0.00
2013-10-9,75.3,61.8,53.0,58.9,52.6,47.6,90,73,54,30.25,30.13,10,3,14,0.00
2013-10-10,74.2,61.1,50.3,57.1,53.0,49.2,96,78,45,30.19,30.08,6,2,7,0.00